createdAt,value
2019-02-15T00:00:13.018Z,11.10
2019-02-15T00:01:12.701Z,11.50
2019-02-15T00:02:12.599Z,11.80
2019-02-15T00:03:12.511Z,11.10
2019-02-15T00:04:12.425Z,10.30
2019-02-15T00:05:12.337Z,10.50
2019-02-15T00:06:12.250Z,10.50
2019-02-15T00:07:12.162Z,10.50
2019-02-15T00:08:12.075Z,11.30
2019-02-15T00:09:11.989Z,10.40
2019-02-15T00:10:11.903Z,10.60
2019-02-15T00:11:11.817Z,10.80
2019-02-15T00:12:11.753Z,10.70
2019-02-15T00:13:13.527Z,10.30
2019-02-15T00:14:11.562Z,11.20
2019-02-15T00:15:11.483Z,10.80
2019-02-15T00:16:11.388Z,10.30
2019-02-15T00:17:11.300Z,10.40
2019-02-15T00:18:11.218Z,10.80
2019-02-15T00:19:11.135Z,10.40
2019-02-15T00:20:11.041Z,10.60
2019-02-15T00:21:10.954Z,10.30
2019-02-15T00:22:10.866Z,10.60
2019-02-15T00:23:10.781Z,10.40
2019-02-15T00:24:10.693Z,10.10
2019-02-15T00:25:10.616Z,10.40
2019-02-15T00:26:10.527Z,10.00
2019-02-15T00:27:10.442Z,9.70
2019-02-15T00:28:10.353Z,10.40
2019-02-15T00:29:10.264Z,10.20
2019-02-15T00:30:10.180Z,10.10
2019-02-15T00:31:10.105Z,10.30
2019-02-15T00:32:10.005Z,10.10
2019-02-15T00:33:09.917Z,10.00
2019-02-15T00:34:09.829Z,9.80
2019-02-15T00:35:09.755Z,10.10
2019-02-15T00:36:09.665Z,10.10
2019-02-15T00:37:09.644Z,11.00
2019-02-15T00:38:09.491Z,10.50
2019-02-15T00:39:09.403Z,9.60
2019-02-15T00:40:09.315Z,9.90
2019-02-15T00:41:09.229Z,9.90
2019-02-15T00:42:09.156Z,10.10
2019-02-15T00:43:09.056Z,10.30
2019-02-15T00:44:08.968Z,10.20
2019-02-15T00:45:08.886Z,10.10
2019-02-15T00:46:08.791Z,10.30
2019-02-15T00:47:08.703Z,10.10
2019-02-15T00:48:08.618Z,10.10
2019-02-15T00:49:08.542Z,10.00
2019-02-15T00:50:08.457Z,10.00
2019-02-15T00:51:08.368Z,10.40
2019-02-15T00:52:08.283Z,9.70
2019-02-15T00:53:08.194Z,9.50
2019-02-15T00:54:08.108Z,10.40
2019-02-15T00:55:08.020Z,10.60
2019-02-15T00:56:07.932Z,10.20
2019-02-15T00:57:07.847Z,9.80
2019-02-15T00:58:07.755Z,10.10
2019-02-15T00:59:07.680Z,10.20
2019-02-15T01:00:07.886Z,10.20
2019-02-15T01:01:07.506Z,10.40
2019-02-15T01:02:07.421Z,9.80
2019-02-15T01:03:07.336Z,10.10
2019-02-15T01:04:07.245Z,10.30
2019-02-15T01:05:07.160Z,10.50
2019-02-15T01:06:07.071Z,10.50
2019-02-15T01:07:06.982Z,10.20
2019-02-15T01:08:06.894Z,10.10
2019-02-15T01:09:06.808Z,10.20
2019-02-15T01:10:06.733Z,10.40
2019-02-15T01:11:06.632Z,10.90
2019-02-15T01:12:06.601Z,10.60
2019-02-15T01:13:06.467Z,10.30
2019-02-15T01:14:06.372Z,10.60
2019-02-15T01:15:06.285Z,11.70
2019-02-15T01:16:06.209Z,11.00
2019-02-15T01:17:06.122Z,10.90
2019-02-15T01:18:06.036Z,10.60
2019-02-15T01:19:05.945Z,10.90
2019-02-15T01:20:06.108Z,10.40
2019-02-15T01:21:05.771Z,11.10
2019-02-15T01:22:05.689Z,10.70
2019-02-15T01:23:05.597Z,10.50
2019-02-15T01:24:05.511Z,11.20
2019-02-15T01:25:05.425Z,10.80
2019-02-15T01:26:05.336Z,10.80
2019-02-15T01:27:05.248Z,10.70
2019-02-15T01:28:05.161Z,10.70
2019-02-15T01:29:05.075Z,10.30
2019-02-15T01:30:04.996Z,10.50
2019-02-15T01:31:04.909Z,10.70
2019-02-15T01:32:04.821Z,10.20
2019-02-15T01:33:04.735Z,10.40
2019-02-15T01:34:04.661Z,10.20
2019-02-15T01:35:04.562Z,10.00
2019-02-15T01:36:04.474Z,9.30
2019-02-15T01:37:04.390Z,9.60
2019-02-15T01:38:04.297Z,9.60
2019-02-15T01:39:04.210Z,9.90
2019-02-15T01:40:04.122Z,9.80
2019-02-15T01:41:04.036Z,9.60
2019-02-15T01:42:03.953Z,9.40
2019-02-15T01:43:03.862Z,10.00
2019-02-15T01:44:03.774Z,9.50
2019-02-15T01:45:03.688Z,9.90
2019-02-15T01:46:03.611Z,9.80
2019-02-15T01:47:03.516Z,9.80
2019-02-15T01:48:03.438Z,9.80
2019-02-15T01:49:03.347Z,9.30
2019-02-15T01:50:03.263Z,9.70
2019-02-15T01:51:03.178Z,9.20
2019-02-15T01:52:03.088Z,10.10
2019-02-15T01:53:03.001Z,10.20
2019-02-15T01:54:02.912Z,9.50
2019-02-15T01:55:02.825Z,9.90
2019-02-15T01:56:02.737Z,9.40
2019-02-15T01:57:02.649Z,9.90
2019-02-15T01:58:02.567Z,10.00
2019-02-15T01:59:02.484Z,10.30
2019-02-15T02:00:02.399Z,10.30
2019-02-15T02:01:02.301Z,10.20
2019-02-15T02:02:02.214Z,10.20
2019-02-15T02:03:02.129Z,9.70
2019-02-15T02:04:02.040Z,9.90
2019-02-15T02:05:01.955Z,10.10
2019-02-15T02:06:01.875Z,10.10
2019-02-15T02:07:01.789Z,10.70
2019-02-15T02:08:01.702Z,9.70
2019-02-15T02:09:01.614Z,9.60
2019-02-15T02:10:01.534Z,9.90
2019-02-15T02:11:01.489Z,9.90
2019-02-15T02:12:01.352Z,10.30
2019-02-15T02:13:01.268Z,9.70
2019-02-15T02:14:01.191Z,9.80
2019-02-15T02:15:01.092Z,9.60
2019-02-15T02:16:01.004Z,9.80
2019-02-15T02:17:00.919Z,9.30
2019-02-15T02:18:00.826Z,9.70
2019-02-15T02:19:00.740Z,10.60
2019-02-15T02:20:00.651Z,9.90
2019-02-15T02:21:00.568Z,9.80
2019-02-15T02:22:00.479Z,10.00
2019-02-15T02:23:01.769Z,10.00
2019-02-15T02:24:00.316Z,9.60
2019-02-15T02:25:00.334Z,9.50
2019-02-15T02:26:00.140Z,10.30
2019-02-15T02:27:00.055Z,10.10
2019-02-15T02:27:59.965Z,9.00
2019-02-15T02:28:59.877Z,10.40
2019-02-15T02:29:59.791Z,10.00
2019-02-15T02:30:59.719Z,9.80
2019-02-15T02:31:59.624Z,9.80
2019-02-15T02:32:59.528Z,9.60
2019-02-15T02:33:59.445Z,10.30
2019-02-15T02:34:59.355Z,10.50
2019-02-15T02:35:59.274Z,9.60
2019-02-15T02:36:59.187Z,10.00
2019-02-15T02:37:59.091Z,9.60
2019-02-15T02:38:59.003Z,9.70
2019-02-15T02:39:59.168Z,10.00
2019-02-15T02:40:58.850Z,9.50
2019-02-15T02:41:58.744Z,9.30
2019-02-15T02:42:58.658Z,9.10
2019-02-15T02:43:59.973Z,9.40
2019-02-15T02:44:58.785Z,9.40
2019-02-15T02:45:58.417Z,9.30
2019-02-15T02:46:58.319Z,9.30
2019-02-15T02:47:58.233Z,9.20
2019-02-15T02:48:58.145Z,9.60
2019-02-15T02:49:58.055Z,9.70
2019-02-15T02:50:57.969Z,9.70
2019-02-15T02:51:57.881Z,9.70
2019-02-15T02:52:57.793Z,9.80
2019-02-15T02:53:57.724Z,9.30
2019-02-15T02:54:57.624Z,9.40
2019-02-15T02:55:57.532Z,9.70
2019-02-15T02:56:57.446Z,10.20
2019-02-15T02:57:57.355Z,9.70
2019-02-15T02:58:57.273Z,10.00
2019-02-15T02:59:57.207Z,10.20
2019-02-15T03:00:57.095Z,10.20
2019-02-15T03:01:57.007Z,9.60
2019-02-15T03:02:56.918Z,9.50
2019-02-15T03:03:56.833Z,9.60
2019-02-15T03:04:56.998Z,9.50
2019-02-15T03:05:56.671Z,9.10
2019-02-15T03:06:56.571Z,8.60
2019-02-15T03:07:56.486Z,9.50
2019-02-15T03:08:56.408Z,9.70
2019-02-15T03:09:56.323Z,9.80
2019-02-15T03:10:56.238Z,8.80
2019-02-15T03:11:56.150Z,9.20
2019-02-15T03:12:56.057Z,9.50
2019-02-15T03:13:55.972Z,9.60
2019-02-15T03:14:55.888Z,9.30
2019-02-15T03:15:55.798Z,9.80
2019-02-15T03:16:55.710Z,9.00
2019-02-15T03:17:55.624Z,9.70
2019-02-15T03:18:55.537Z,9.10
2019-02-15T03:19:55.448Z,9.70
2019-02-15T03:20:55.361Z,9.50
2019-02-15T03:21:55.271Z,9.00
2019-02-15T03:22:55.184Z,9.10
2019-02-15T03:23:55.103Z,9.30
2019-02-15T03:24:55.031Z,9.20
2019-02-15T03:25:54.924Z,9.80
2019-02-15T03:26:54.838Z,9.60
2019-02-15T03:27:54.749Z,8.90
2019-02-15T03:28:54.663Z,9.20
2019-02-15T03:29:54.574Z,9.30
2019-02-15T03:30:54.486Z,9.50
2019-02-15T03:31:54.411Z,9.70
2019-02-15T03:32:54.332Z,9.20
2019-02-15T03:33:54.241Z,9.60
2019-02-15T03:34:54.162Z,9.10
2019-02-15T03:35:54.076Z,9.40
2019-02-15T03:36:53.977Z,9.80
2019-02-15T03:37:53.901Z,9.20
2019-02-15T03:38:53.800Z,9.60
2019-02-15T03:39:54.013Z,9.50
2019-02-15T03:40:53.626Z,9.70
2019-02-15T03:41:53.537Z,9.60
2019-02-15T03:42:53.448Z,9.20
2019-02-15T03:43:53.361Z,9.70
2019-02-15T03:44:53.276Z,9.40
2019-02-15T03:45:53.189Z,9.70
2019-02-15T03:46:53.101Z,9.10
2019-02-15T03:47:53.013Z,10.20
2019-02-15T03:48:52.926Z,9.90
2019-02-15T03:49:52.840Z,9.80
2019-02-15T03:50:52.751Z,10.10
2019-02-15T03:51:52.661Z,9.40
2019-02-15T03:52:52.574Z,9.30
2019-02-15T03:53:52.495Z,9.60
2019-02-15T03:54:52.402Z,9.50
2019-02-15T03:55:52.314Z,9.70
2019-02-15T03:56:52.246Z,9.80
2019-02-15T03:57:52.137Z,10.20
2019-02-15T03:58:52.051Z,9.70
2019-02-15T03:59:52.271Z,10.00
2019-02-15T04:00:51.876Z,9.80
2019-02-15T04:01:51.790Z,9.80
2019-02-15T04:02:51.703Z,10.00
2019-02-15T04:03:51.619Z,10.00
2019-02-15T04:04:51.785Z,10.10
2019-02-15T04:05:51.456Z,9.80
2019-02-15T04:06:51.354Z,10.00
2019-02-15T04:07:51.275Z,9.80
2019-02-15T04:08:51.191Z,9.70
2019-02-15T04:09:51.108Z,10.10
2019-02-15T04:10:51.013Z,9.60
2019-02-15T04:11:50.931Z,10.20
2019-02-15T04:12:50.839Z,10.00
2019-02-15T04:13:50.754Z,10.60
2019-02-15T04:14:50.667Z,9.80
2019-02-15T04:15:50.583Z,9.70
2019-02-15T04:16:50.493Z,9.80
2019-02-15T04:17:50.403Z,9.80
2019-02-15T04:18:50.316Z,9.90
2019-02-15T04:19:50.229Z,10.20
2019-02-15T04:20:50.139Z,10.40
2019-02-15T04:21:50.056Z,10.40
2019-02-15T04:22:49.967Z,10.60
2019-02-15T04:23:49.879Z,10.90
2019-02-15T04:24:49.796Z,11.10
2019-02-15T04:25:49.708Z,10.00
2019-02-15T04:26:49.619Z,10.40
2019-02-15T04:27:49.530Z,11.00
2019-02-15T04:28:49.445Z,11.00
2019-02-15T04:29:49.358Z,11.00
2019-02-15T04:30:49.266Z,10.30
2019-02-15T04:31:49.188Z,11.20
2019-02-15T04:32:49.091Z,10.70
2019-02-15T04:33:49.006Z,10.50
2019-02-15T04:34:48.921Z,10.90
2019-02-15T04:35:48.831Z,10.80
2019-02-15T04:36:48.745Z,11.40
2019-02-15T04:37:48.657Z,10.80
2019-02-15T04:38:48.574Z,10.60
2019-02-15T04:39:48.488Z,10.80
2019-02-15T04:40:48.395Z,11.00
2019-02-15T04:41:48.305Z,10.70
2019-02-15T04:42:48.219Z,10.70
2019-02-15T04:43:48.130Z,11.40
2019-02-15T04:44:48.046Z,11.30
2019-02-15T04:45:47.958Z,11.30
2019-02-15T04:46:49.960Z,11.20
2019-02-15T04:47:47.783Z,11.70
2019-02-15T04:48:47.695Z,10.60
2019-02-15T04:49:47.606Z,10.70
2019-02-15T04:50:47.518Z,11.10
2019-02-15T04:51:47.431Z,10.60
2019-02-15T04:52:47.356Z,11.20
2019-02-15T04:53:47.259Z,10.60
2019-02-15T04:54:47.183Z,10.60
2019-02-15T04:55:47.083Z,11.00
2019-02-15T04:56:47.025Z,10.60
2019-02-15T04:57:46.910Z,11.30
2019-02-15T04:58:46.824Z,10.60
2019-02-15T04:59:47.083Z,10.50
2019-02-15T05:00:46.645Z,10.80
2019-02-15T05:01:46.560Z,10.60
2019-02-15T05:02:46.499Z,10.60
2019-02-15T05:03:46.385Z,11.20
2019-02-15T05:04:46.297Z,11.00
2019-02-15T05:05:46.210Z,11.20
2019-02-15T05:06:46.125Z,10.90
2019-02-15T05:07:46.032Z,10.80
2019-02-15T05:08:45.946Z,10.70
2019-02-15T05:09:45.859Z,10.80
2019-02-15T05:10:45.771Z,10.70
2019-02-15T05:11:45.683Z,10.40
2019-02-15T05:12:45.595Z,11.10
2019-02-15T05:13:45.510Z,10.40
2019-02-15T05:14:52.804Z,10.90
2019-02-15T05:15:45.336Z,10.40
2019-02-15T05:16:45.249Z,10.80
2019-02-15T05:17:45.162Z,10.90
2019-02-15T05:18:45.072Z,10.60
2019-02-15T05:19:45.235Z,10.20
2019-02-15T05:20:44.895Z,10.20
2019-02-15T05:21:44.812Z,10.70
2019-02-15T05:22:44.727Z,10.80
2019-02-15T05:23:44.639Z,10.60
2019-02-15T05:24:44.549Z,10.90
2019-02-15T05:25:44.463Z,10.30
2019-02-15T05:26:44.374Z,10.70
2019-02-15T05:27:44.287Z,10.90
2019-02-15T05:28:44.202Z,11.00
2019-02-15T05:29:44.110Z,11.20
2019-02-15T05:30:44.040Z,10.90
2019-02-15T05:31:43.936Z,10.40
2019-02-15T05:32:43.861Z,10.50
2019-02-15T05:33:43.763Z,10.70
2019-02-15T05:34:43.686Z,10.80
2019-02-15T05:35:43.591Z,10.40
2019-02-15T05:36:43.504Z,10.30
2019-02-15T05:37:43.426Z,10.10
2019-02-15T05:38:43.323Z,10.80
2019-02-15T05:39:43.236Z,10.80
2019-02-15T05:40:43.165Z,10.70
2019-02-15T05:41:43.083Z,10.60
2019-02-15T05:42:42.974Z,11.20
2019-02-15T05:43:42.888Z,10.70
2019-02-15T05:44:43.052Z,11.00
2019-02-15T05:45:42.714Z,10.60
2019-02-15T05:46:42.627Z,10.70
2019-02-15T05:47:42.544Z,10.90
2019-02-15T05:48:42.452Z,10.80
2019-02-15T05:49:42.375Z,11.00
2019-02-15T05:50:42.274Z,11.20
2019-02-15T05:51:42.187Z,10.40
2019-02-15T05:52:42.114Z,11.40
2019-02-15T05:53:42.015Z,10.50
2019-02-15T05:54:41.929Z,10.80
2019-02-15T05:55:41.844Z,11.10
2019-02-15T05:56:41.754Z,10.90
2019-02-15T05:57:41.664Z,10.90
2019-02-15T05:58:41.582Z,10.60
2019-02-15T05:59:41.743Z,10.30
2019-02-15T06:00:41.426Z,10.70
2019-02-15T06:01:41.319Z,11.00
2019-02-15T06:02:41.228Z,10.80
2019-02-15T06:03:41.144Z,10.30
2019-02-15T06:04:41.054Z,10.40
2019-02-15T06:05:40.965Z,11.40
2019-02-15T06:06:40.875Z,11.00
2019-02-15T06:07:40.796Z,10.40
2019-02-15T06:08:40.702Z,10.70
2019-02-15T06:09:40.617Z,11.40
2019-02-15T06:10:40.529Z,10.80
2019-02-15T06:11:40.445Z,10.70
2019-02-15T06:12:40.358Z,10.50
2019-02-15T06:13:40.268Z,10.40
2019-02-15T06:14:40.180Z,10.90
2019-02-15T06:15:40.104Z,10.90
2019-02-15T06:16:40.004Z,10.60
2019-02-15T06:17:39.919Z,10.40
2019-02-15T06:18:39.829Z,10.70
2019-02-15T06:19:39.741Z,10.70
2019-02-15T06:20:39.652Z,11.00
2019-02-15T06:21:39.569Z,11.10
2019-02-15T06:22:39.488Z,11.00
2019-02-15T06:23:39.393Z,11.10
2019-02-15T06:24:39.305Z,11.00
2019-02-15T06:25:39.218Z,11.40
2019-02-15T06:26:39.133Z,11.40
2019-02-15T06:27:39.041Z,11.50
2019-02-15T06:28:38.954Z,11.50
2019-02-15T06:29:38.867Z,11.90
2019-02-15T06:30:38.780Z,11.50
2019-02-15T06:31:38.691Z,11.50
2019-02-15T06:32:38.604Z,12.10
2019-02-15T06:33:38.519Z,11.30
2019-02-15T06:34:38.445Z,11.20
2019-02-15T06:35:38.345Z,11.20
2019-02-15T06:36:38.285Z,11.00
2019-02-15T06:37:38.168Z,11.40
2019-02-15T06:38:38.102Z,11.00
2019-02-15T06:39:38.243Z,11.10
2019-02-15T06:40:37.904Z,11.30
2019-02-15T06:41:37.826Z,11.20
2019-02-15T06:42:37.732Z,10.80
2019-02-15T06:43:37.645Z,11.40
2019-02-15T06:44:37.558Z,11.60
2019-02-15T06:45:37.472Z,10.60
2019-02-15T06:46:37.396Z,12.20
2019-02-15T06:47:37.297Z,11.40
2019-02-15T06:48:37.207Z,11.00
2019-02-15T06:49:37.125Z,11.80
2019-02-15T06:50:37.037Z,11.80
2019-02-15T06:51:36.945Z,11.90
2019-02-15T06:52:36.857Z,11.60
2019-02-15T06:53:36.792Z,12.00
2019-02-15T06:54:36.683Z,11.50
2019-02-15T06:55:36.596Z,11.60
2019-02-15T06:56:36.526Z,11.50
2019-02-15T06:57:36.422Z,11.70
2019-02-15T06:58:45.153Z,12.00
2019-02-15T06:59:36.248Z,11.90
2019-02-15T07:00:36.157Z,11.70
2019-02-15T07:01:36.070Z,11.50
2019-02-15T07:02:35.982Z,11.10
2019-02-15T07:03:35.896Z,11.20
2019-02-15T07:04:35.818Z,11.60
2019-02-15T07:05:35.723Z,11.90
2019-02-15T07:06:35.634Z,11.20
2019-02-15T07:07:35.548Z,11.50
2019-02-15T07:08:35.459Z,11.90
2019-02-15T07:09:35.371Z,11.70
2019-02-15T07:10:35.283Z,11.60
2019-02-15T07:11:35.196Z,11.70
2019-02-15T07:12:35.109Z,11.60
2019-02-15T07:13:35.023Z,11.00
2019-02-15T07:14:34.937Z,11.40
2019-02-15T07:15:34.849Z,11.60
2019-02-15T07:16:34.760Z,11.60
2019-02-15T07:17:34.674Z,11.90
2019-02-15T07:18:34.590Z,11.30
2019-02-15T07:19:34.749Z,10.60
2019-02-15T07:20:34.411Z,11.10
2019-02-15T07:21:34.323Z,11.20
2019-02-15T07:22:34.234Z,11.30
2019-02-15T07:23:34.147Z,11.00
2019-02-15T07:24:34.061Z,11.10
2019-02-15T07:25:33.976Z,11.30
2019-02-15T07:26:33.887Z,11.10
2019-02-15T07:27:33.800Z,11.00
2019-02-15T07:28:33.713Z,10.90
2019-02-15T07:29:33.630Z,11.40
2019-02-15T07:30:33.535Z,10.60
2019-02-15T07:31:33.449Z,10.40
2019-02-15T07:32:33.360Z,10.80
2019-02-15T07:33:33.274Z,10.50
2019-02-15T07:34:33.188Z,10.10
2019-02-15T07:35:33.101Z,10.60
2019-02-15T07:36:33.014Z,10.60
2019-02-15T07:37:32.935Z,10.30
2019-02-15T07:38:32.841Z,10.20
2019-02-15T07:39:33.001Z,10.40
2019-02-15T07:40:32.663Z,10.10
2019-02-15T07:41:32.574Z,10.40
2019-02-15T07:42:32.499Z,10.70
2019-02-15T07:43:32.400Z,10.50
2019-02-15T07:44:32.312Z,9.80
2019-02-15T07:45:32.230Z,10.50
2019-02-15T07:46:32.139Z,10.50
2019-02-15T07:47:32.052Z,10.00
2019-02-15T07:48:31.978Z,10.10
2019-02-15T07:49:31.905Z,9.70
2019-02-15T07:50:31.803Z,10.10
2019-02-15T07:51:31.714Z,10.30
2019-02-15T07:52:31.632Z,9.60
2019-02-15T07:53:31.538Z,9.40
2019-02-15T07:54:31.453Z,9.80
2019-02-15T07:55:31.363Z,9.90
2019-02-15T07:56:31.277Z,9.00
2019-02-15T07:57:31.203Z,9.50
2019-02-15T07:58:31.105Z,9.60
2019-02-15T07:59:31.016Z,9.90
2019-02-15T08:00:30.934Z,9.10
2019-02-15T08:01:30.839Z,9.50
2019-02-15T08:02:30.752Z,9.00
2019-02-15T08:03:30.678Z,9.20
2019-02-15T08:04:30.601Z,9.00
2019-02-15T08:05:30.507Z,9.40
2019-02-15T08:06:30.416Z,9.50
2019-02-15T08:07:30.330Z,9.20
2019-02-15T08:08:30.243Z,8.80
2019-02-15T08:09:30.153Z,8.80
2019-02-15T08:10:30.065Z,9.10
2019-02-15T08:11:29.984Z,9.10
2019-02-15T08:12:29.891Z,9.40
2019-02-15T08:13:29.818Z,9.20
2019-02-15T08:14:29.733Z,8.90
2019-02-15T08:15:35.922Z,8.80
2019-02-15T08:16:29.556Z,9.10
2019-02-15T08:17:29.465Z,9.20
2019-02-15T08:18:29.379Z,9.10
2019-02-15T08:19:29.304Z,9.00
2019-02-15T08:20:29.204Z,8.80
2019-02-15T08:21:29.133Z,8.80
2019-02-15T08:22:29.042Z,9.10
2019-02-15T08:23:28.956Z,9.40
2019-02-15T08:24:28.867Z,8.70
2019-02-15T08:25:28.781Z,9.10
2019-02-15T08:26:28.700Z,8.90
2019-02-15T08:27:28.607Z,8.40
2019-02-15T08:28:28.532Z,8.60
2019-02-15T08:29:28.442Z,8.50
2019-02-15T08:30:28.355Z,8.70
2019-02-15T08:31:28.269Z,8.30
2019-02-15T08:32:28.181Z,8.60
2019-02-15T08:33:28.107Z,8.50
2019-02-15T08:34:28.019Z,7.90
2019-02-15T08:35:27.933Z,8.00
2019-02-15T08:36:27.844Z,7.50
2019-02-15T08:37:27.769Z,7.90
2019-02-15T08:38:27.691Z,8.10
2019-02-15T08:39:27.595Z,8.00
2019-02-15T08:40:27.510Z,7.60
2019-02-15T08:41:27.434Z,7.50
2019-02-15T08:42:27.344Z,8.00
2019-02-15T08:43:27.262Z,7.90
2019-02-15T08:44:27.182Z,7.80
2019-02-15T08:45:27.095Z,7.70
2019-02-15T08:46:27.011Z,7.80
2019-02-15T08:47:26.935Z,7.60
2019-02-15T08:48:26.846Z,7.30
2019-02-15T08:49:26.760Z,7.40
2019-02-15T08:50:26.683Z,7.20
2019-02-15T08:51:26.596Z,7.70
2019-02-15T08:52:26.508Z,7.90
2019-02-15T08:53:26.433Z,7.40
2019-02-15T08:54:26.348Z,7.70
2019-02-15T08:55:26.269Z,7.70
2019-02-15T08:56:26.183Z,7.60
2019-02-15T08:57:26.110Z,7.40
2019-02-15T08:58:26.023Z,7.00
2019-02-15T08:59:25.936Z,7.70
2019-02-15T09:00:25.860Z,7.50
2019-02-15T09:01:25.783Z,7.20
2019-02-15T09:02:25.683Z,7.40
2019-02-15T09:03:25.611Z,7.10
2019-02-15T09:04:25.521Z,7.50
2019-02-15T09:05:25.448Z,6.90
2019-02-15T09:06:25.361Z,7.10
2019-02-15T09:07:25.286Z,7.50
2019-02-15T09:08:25.198Z,7.10
2019-02-15T09:09:25.122Z,7.70
2019-02-15T09:10:25.037Z,7.50
2019-02-15T09:11:24.948Z,7.50
2019-02-15T09:12:24.874Z,7.30
2019-02-15T09:13:24.785Z,7.00
2019-02-15T09:14:24.710Z,6.90
2019-02-15T09:15:24.636Z,7.50
2019-02-15T09:16:24.548Z,7.10
2019-02-15T09:17:24.462Z,6.50
2019-02-15T09:18:24.375Z,7.10
2019-02-15T09:19:24.299Z,6.50
2019-02-15T09:20:24.213Z,6.80
2019-02-15T09:21:24.135Z,6.80
2019-02-15T09:22:24.049Z,6.70
2019-02-15T09:23:23.973Z,6.30
2019-02-15T09:24:23.885Z,6.60
2019-02-15T09:25:23.811Z,6.70
2019-02-15T09:26:23.742Z,6.60
2019-02-15T09:27:23.636Z,6.50
2019-02-15T09:28:23.561Z,6.30
2019-02-15T09:29:23.475Z,6.50
2019-02-15T09:30:23.401Z,6.80
2019-02-15T09:31:23.314Z,6.80
2019-02-15T09:32:23.239Z,6.80
2019-02-15T09:33:23.148Z,6.40
2019-02-15T09:34:23.074Z,6.70
2019-02-15T09:35:22.991Z,6.70
2019-02-15T09:36:22.913Z,6.70
2019-02-15T09:37:22.826Z,6.50
2019-02-15T09:38:22.741Z,6.70
2019-02-15T09:39:22.914Z,6.80
2019-02-15T09:40:22.577Z,6.70
2019-02-15T09:41:22.504Z,6.80
2019-02-15T09:42:22.416Z,6.90
2019-02-15T09:43:22.343Z,6.80
2019-02-15T09:44:22.265Z,6.60
2019-02-15T09:45:22.175Z,6.50
2019-02-15T09:46:22.092Z,6.90
2019-02-15T09:47:22.013Z,7.20
2019-02-15T09:48:21.925Z,6.90
2019-02-15T09:49:22.230Z,6.70
2019-02-15T09:50:21.767Z,6.60
2019-02-15T09:51:21.677Z,7.00
2019-02-15T09:52:21.605Z,6.80
2019-02-15T09:53:21.515Z,7.00
2019-02-15T09:54:21.439Z,7.10
2019-02-15T09:55:21.364Z,7.20
2019-02-15T09:56:21.275Z,7.00
2019-02-15T09:57:21.190Z,6.80
2019-02-15T09:58:21.106Z,7.30
2019-02-15T09:59:21.029Z,7.00
2019-02-15T10:00:20.943Z,6.60
2019-02-15T10:01:20.867Z,7.00
2019-02-15T10:02:20.779Z,7.50
2019-02-15T10:03:20.706Z,6.80
2019-02-15T10:04:20.618Z,6.70
2019-02-15T10:05:20.540Z,6.90
2019-02-15T10:06:20.465Z,6.60
2019-02-15T10:07:20.378Z,7.00
2019-02-15T10:08:20.297Z,7.00
2019-02-15T10:09:20.206Z,6.90
2019-02-15T10:10:20.130Z,6.90
2019-02-15T10:11:20.043Z,7.00
2019-02-15T10:12:19.968Z,7.10
2019-02-15T10:13:19.878Z,6.70
2019-02-15T10:14:19.803Z,6.80
2019-02-15T10:15:19.716Z,6.60
2019-02-15T10:16:28.327Z,7.20
2019-02-15T10:17:19.556Z,9.00
2019-02-15T10:18:19.480Z,8.40
2019-02-15T10:19:22.432Z,7.30
2019-02-15T10:20:19.310Z,7.30
2019-02-15T10:21:19.230Z,8.90
2019-02-15T10:22:19.142Z,8.20
2019-02-15T10:23:19.066Z,7.10
2019-02-15T10:24:18.980Z,7.60
2019-02-15T10:25:18.906Z,6.60
2019-02-15T10:26:18.819Z,6.90
2019-02-15T10:27:18.747Z,6.60
2019-02-15T10:28:18.657Z,6.70
2019-02-15T10:29:18.583Z,6.70
2019-02-15T10:30:18.495Z,6.30
2019-02-15T10:31:18.419Z,6.60
2019-02-15T10:32:18.331Z,6.30
2019-02-15T10:33:18.256Z,6.90
2019-02-15T10:34:18.168Z,6.90
2019-02-15T10:35:18.083Z,6.90
2019-02-15T10:36:18.978Z,6.50
2019-02-15T10:37:17.921Z,6.60
2019-02-15T10:38:17.846Z,6.90
2019-02-15T10:39:17.761Z,6.70
2019-02-15T10:40:17.699Z,7.10
2019-02-15T10:41:17.594Z,6.70
2019-02-15T10:42:17.520Z,6.50
2019-02-15T10:43:17.444Z,6.40
2019-02-15T10:44:17.355Z,6.50
2019-02-15T10:45:17.271Z,7.00
2019-02-15T10:46:17.194Z,6.70
2019-02-15T10:47:24.654Z,6.80
2019-02-15T10:48:17.033Z,6.50
2019-02-15T10:49:16.948Z,6.80
2019-02-15T10:50:16.877Z,6.50
2019-02-15T10:51:16.785Z,6.50
2019-02-15T10:52:16.711Z,7.10
2019-02-15T10:53:16.632Z,6.80
2019-02-15T10:54:16.546Z,6.50
2019-02-15T10:55:16.473Z,6.30
2019-02-15T10:56:16.386Z,6.20
2019-02-15T10:57:16.311Z,6.30
2019-02-15T10:58:16.234Z,6.50
2019-02-15T10:59:16.151Z,6.20
2019-02-15T11:00:16.062Z,6.40
2019-02-15T11:01:15.994Z,6.10
2019-02-15T11:02:15.910Z,6.40
2019-02-15T11:03:15.824Z,6.40
2019-02-15T11:04:15.748Z,6.30
2019-02-15T11:05:15.660Z,6.50
2019-02-15T11:06:15.584Z,6.10
2019-02-15T11:07:15.509Z,6.10
2019-02-15T11:08:15.422Z,6.50
2019-02-15T11:09:15.348Z,6.10
2019-02-15T11:10:15.274Z,5.80
2019-02-15T11:11:15.186Z,6.60
2019-02-15T11:12:15.124Z,6.80
2019-02-15T11:13:15.036Z,7.90
2019-02-15T11:14:14.955Z,7.10
2019-02-15T11:15:14.886Z,6.60
2019-02-15T11:16:14.799Z,6.00
2019-02-15T11:17:14.723Z,6.50
2019-02-15T11:18:14.635Z,6.40
2019-02-15T11:19:14.560Z,6.10
2019-02-15T11:20:14.486Z,6.00
2019-02-15T11:21:14.401Z,6.30
2019-02-15T11:22:14.327Z,6.40
2019-02-15T11:23:14.252Z,6.50
2019-02-15T11:24:14.175Z,5.90
2019-02-15T11:25:14.085Z,6.00
2019-02-15T11:26:14.012Z,6.20
2019-02-15T11:27:13.935Z,6.40
2019-02-15T11:28:13.850Z,6.00
2019-02-15T11:29:13.778Z,6.60
2019-02-15T11:30:13.703Z,5.80
2019-02-15T11:31:13.629Z,5.60
2019-02-15T11:32:13.538Z,5.40
2019-02-15T11:33:13.464Z,6.00
2019-02-15T11:34:13.388Z,5.90
2019-02-15T11:35:13.341Z,5.90
2019-02-15T11:36:13.226Z,5.70
2019-02-15T11:37:13.151Z,6.00
2019-02-15T11:38:13.062Z,5.40
2019-02-15T11:39:13.254Z,5.40
2019-02-15T11:40:12.917Z,5.20
2019-02-15T11:41:12.855Z,5.80
2019-02-15T11:42:12.753Z,5.40
2019-02-15T11:43:12.678Z,5.80
2019-02-15T11:44:12.608Z,5.50
2019-02-15T11:45:12.526Z,5.80
2019-02-15T11:46:12.437Z,5.70
2019-02-15T11:47:12.363Z,5.60
2019-02-15T11:48:12.288Z,5.80
2019-02-15T11:49:12.213Z,5.70
2019-02-15T11:50:12.142Z,5.70
2019-02-15T11:51:12.052Z,5.30
2019-02-15T11:52:11.976Z,5.40
2019-02-15T11:53:11.905Z,5.30
2019-02-15T11:54:11.817Z,5.30
2019-02-15T11:55:11.741Z,5.70
2019-02-15T11:56:11.666Z,5.40
2019-02-15T11:57:11.590Z,5.50
2019-02-15T11:58:11.514Z,5.30
2019-02-15T11:59:11.428Z,5.50
2019-02-15T12:00:14.192Z,5.10
2019-02-15T12:01:11.282Z,5.50
2019-02-15T12:02:11.209Z,5.30
2019-02-15T12:03:11.130Z,5.00
2019-02-15T12:04:11.056Z,5.30
2019-02-15T12:05:10.984Z,5.40
2019-02-15T12:06:10.893Z,5.30
2019-02-15T12:07:10.820Z,5.40
2019-02-15T12:08:10.742Z,5.10
2019-02-15T12:09:10.666Z,4.80
2019-02-15T12:10:10.592Z,4.90
2019-02-15T12:11:11.809Z,5.10
2019-02-15T12:12:11.082Z,4.80
2019-02-15T12:13:10.369Z,4.90
2019-02-15T12:14:10.307Z,5.10
2019-02-15T12:15:10.218Z,5.20
2019-02-15T12:16:10.143Z,4.80
2019-02-15T12:17:10.066Z,4.80
2019-02-15T12:18:09.979Z,4.80
2019-02-15T12:19:10.155Z,4.40
2019-02-15T12:20:09.833Z,4.70
2019-02-15T12:21:09.757Z,4.40
2019-02-15T12:22:09.686Z,4.40
2019-02-15T12:23:09.609Z,4.40
2019-02-15T12:24:09.538Z,4.10
2019-02-15T12:25:09.455Z,4.50
2019-02-15T12:26:09.383Z,4.50
2019-02-15T12:27:09.307Z,4.70
2019-02-15T12:28:09.234Z,4.30
2019-02-15T12:29:09.158Z,4.40
2019-02-15T12:30:09.084Z,4.80
2019-02-15T12:31:09.011Z,4.30
2019-02-15T12:32:08.933Z,4.00
2019-02-15T12:33:08.861Z,4.20
2019-02-15T12:34:08.793Z,4.00
2019-02-15T12:35:08.707Z,4.20
2019-02-15T12:36:08.632Z,4.40
2019-02-15T12:37:08.556Z,4.10
2019-02-15T12:38:08.488Z,4.30
2019-02-15T12:39:08.408Z,4.20
2019-02-15T12:40:08.332Z,4.30
2019-02-15T12:41:08.259Z,4.40
2019-02-15T12:42:08.185Z,4.10
2019-02-15T12:43:08.109Z,4.40
2019-02-15T12:44:08.034Z,3.70
2019-02-15T12:45:07.957Z,3.80
2019-02-15T12:46:07.883Z,3.90
2019-02-15T12:47:14.889Z,4.30
2019-02-15T12:48:07.733Z,3.90
2019-02-15T12:49:07.660Z,3.90
2019-02-15T12:50:07.591Z,3.60
2019-02-15T12:51:07.511Z,3.80
2019-02-15T12:52:07.435Z,3.90
2019-02-15T12:53:07.361Z,3.90
2019-02-15T12:54:07.285Z,4.30
2019-02-15T12:55:07.224Z,4.00
2019-02-15T12:56:07.135Z,4.00
2019-02-15T12:57:07.060Z,3.60
2019-02-15T12:58:06.990Z,4.30
2019-02-15T12:59:06.914Z,3.80
2019-02-15T13:00:06.835Z,4.70
2019-02-15T13:01:06.761Z,4.00
2019-02-15T13:02:06.950Z,4.30
2019-02-15T13:03:06.613Z,4.10
2019-02-15T13:04:06.536Z,3.50
2019-02-15T13:05:06.460Z,3.60
2019-02-15T13:06:06.384Z,3.80